sensor_id;sensor_type;location;lat;lon;timestamp;temperature;humidity
45491;DHT22;31237;45.586;13.782;2022-10-24T00:00:35;17.80;98.70
45491;DHT22;31237;45.586;13.782;2022-10-24T00:03:01;17.90;98.70
45491;DHT22;31237;45.586;13.782;2022-10-24T00:05:27;17.80;98.60
45491;DHT22;31237;45.586;13.782;2022-10-24T00:07:53;17.80;98.60
45491;DHT22;31237;45.586;13.782;2022-10-24T00:10:19;17.80;98.60
45491;DHT22;31237;45.586;13.782;2022-10-24T00:12:45;17.90;98.60
45491;DHT22;31237;45.586;13.782;2022-10-24T00:15:12;17.90;98.60
45491;DHT22;31237;45.586;13.782;2022-10-24T00:17:38;17.90;98.50
45491;DHT22;31237;45.586;13.782;2022-10-24T00:20:05;17.90;98.50
45491;DHT22;31237;45.586;13.782;2022-10-24T00:22:31;17.90;98.50
45491;DHT22;31237;45.586;13.782;2022-10-24T00:24:57;17.90;98.60
45491;DHT22;31237;45.586;13.782;2022-10-24T00:27:22;17.90;98.50
45491;DHT22;31237;45.586;13.782;2022-10-24T00:29:48;17.90;98.60
45491;DHT22;31237;45.586;13.782;2022-10-24T00:32:14;17.90;98.60
45491;DHT22;31237;45.586;13.782;2022-10-24T00:34:40;17.90;98.60
45491;DHT22;31237;45.586;13.782;2022-10-24T00:37:06;17.90;98.60
45491;DHT22;31237;45.586;13.782;2022-10-24T00:39:32;17.90;98.70
45491;DHT22;31237;45.586;13.782;2022-10-24T00:41:57;17.90;98.70
45491;DHT22;31237;45.586;13.782;2022-10-24T00:44:32;17.90;98.70
45491;DHT22;31237;45.586;13.782;2022-10-24T00:47:23;17.90;98.70
45491;DHT22;31237;45.586;13.782;2022-10-24T00:50:29;17.90;98.60
45491;DHT22;31237;45.586;13.782;2022-10-24T00:52:48;17.90;98.60
45491;DHT22;31237;45.586;13.782;2022-10-24T00:55:14;17.90;98.60
45491;DHT22;31237;45.586;13.782;2022-10-24T00:57:52;17.80;98.60
45491;DHT22;31237;45.586;13.782;2022-10-24T01:00:26;17.90;98.60
45491;DHT22;31237;45.586;13.782;2022-10-24T01:02:53;17.80;98.60
45491;DHT22;31237;45.586;13.782;2022-10-24T01:05:20;17.80;98.60
45491;DHT22;31237;45.586;13.782;2022-10-24T01:08:08;17.80;98.60
45491;DHT22;31237;45.586;13.782;2022-10-24T01:13:41;17.80;98.60
45491;DHT22;31237;45.586;13.782;2022-10-24T01:16:14;17.80;98.70
45491;DHT22;31237;45.586;13.782;2022-10-24T01:18:49;17.80;98.80
45491;DHT22;31237;45.586;13.782;2022-10-24T01:21:36;17.80;98.80
45491;DHT22;31237;45.586;13.782;2022-10-24T01:32:33;17.90;99.00
45491;DHT22;31237;45.586;13.782;2022-10-24T01:35:23;17.80;99.00
45491;DHT22;31237;45.586;13.782;2022-10-24T01:43:18;17.90;99.00
45491;DHT22;31237;45.586;13.782;2022-10-24T01:45:49;17.90;99.00
45491;DHT22;31237;45.586;13.782;2022-10-24T01:48:20;18.00;99.00
45491;DHT22;31237;45.586;13.782;2022-10-24T01:50:49;18.00;99.10
45491;DHT22;31237;45.586;13.782;2022-10-24T01:53:16;18.00;99.00
45491;DHT22;31237;45.586;13.782;2022-10-24T01:55:43;18.00;99.10
45491;DHT22;31237;45.586;13.782;2022-10-24T01:58:09;18.00;99.30
45491;DHT22;31237;45.586;13.782;2022-10-24T02:00:36;18.00;99.00
45491;DHT22;31237;45.586;13.782;2022-10-24T02:03:18;18.00;99.00
45491;DHT22;31237;45.586;13.782;2022-10-24T02:05:50;18.10;99.00
45491;DHT22;31237;45.586;13.782;2022-10-24T02:08:21;18.10;99.00
45491;DHT22;31237;45.586;13.782;2022-10-24T02:10:56;18.10;98.90
45491;DHT22;31237;45.586;13.782;2022-10-24T02:13:33;18.10;99.00
45491;DHT22;31237;45.586;13.782;2022-10-24T02:16:02;18.10;99.00
45491;DHT22;31237;45.586;13.782;2022-10-24T02:18:29;18.10;98.90
45491;DHT22;31237;45.586;13.782;2022-10-24T02:21:07;18.10;98.90
45491;DHT22;31237;45.586;13.782;2022-10-24T02:23:47;18.10;98.90
45491;DHT22;31237;45.586;13.782;2022-10-24T02:26:30;18.10;99.00
45491;DHT22;31237;45.586;13.782;2022-10-24T02:29:00;18.10;98.90
45491;DHT22;31237;45.586;13.782;2022-10-24T02:31:32;18.10;98.90
45491;DHT22;31237;45.586;13.782;2022-10-24T02:33:59;18.10;98.90
45491;DHT22;31237;45.586;13.782;2022-10-24T02:36:27;18.10;98.90
45491;DHT22;31237;45.586;13.782;2022-10-24T02:38:54;18.10;98.90
45491;DHT22;31237;45.586;13.782;2022-10-24T02:41:24;18.10;98.90
45491;DHT22;31237;45.586;13.782;2022-10-24T02:43:52;18.10;98.90
45491;DHT22;31237;45.586;13.782;2022-10-24T02:46:20;18.10;98.90
45491;DHT22;31237;45.586;13.782;2022-10-24T02:48:54;18.10;98.90
45491;DHT22;31237;45.586;13.782;2022-10-24T02:51:24;18.10;98.90
45491;DHT22;31237;45.586;13.782;2022-10-24T02:53:51;18.10;99.00
45491;DHT22;31237;45.586;13.782;2022-10-24T02:56:17;18.10;99.00
45491;DHT22;31237;45.586;13.782;2022-10-24T02:58:43;18.10;99.00
45491;DHT22;31237;45.586;13.782;2022-10-24T03:01:08;18.10;99.00
45491;DHT22;31237;45.586;13.782;2022-10-24T03:03:34;18.00;99.00
45491;DHT22;31237;45.586;13.782;2022-10-24T03:06:00;18.00;99.00
45491;DHT22;31237;45.586;13.782;2022-10-24T03:08:26;18.00;99.00
45491;DHT22;31237;45.586;13.782;2022-10-24T03:10:51;18.00;99.00
45491;DHT22;31237;45.586;13.782;2022-10-24T03:13:17;18.00;99.10
45491;DHT22;31237;45.586;13.782;2022-10-24T03:15:43;18.00;99.10
45491;DHT22;31237;45.586;13.782;2022-10-24T03:18:08;18.00;99.10
45491;DHT22;31237;45.586;13.782;2022-10-24T03:20:34;18.00;99.20
45491;DHT22;31237;45.586;13.782;2022-10-24T03:23:00;18.00;99.30
45491;DHT22;31237;45.586;13.782;2022-10-24T03:25:26;18.00;99.30
45491;DHT22;31237;45.586;13.782;2022-10-24T03:27:51;18.00;99.40
45491;DHT22;31237;45.586;13.782;2022-10-24T03:30:17;18.00;99.40
45491;DHT22;31237;45.586;13.782;2022-10-24T03:32:43;18.00;99.40
45491;DHT22;31237;45.586;13.782;2022-10-24T03:35:09;18.00;99.40
45491;DHT22;31237;45.586;13.782;2022-10-24T03:37:34;18.00;99.40
45491;DHT22;31237;45.586;13.782;2022-10-24T03:40:00;18.10;99.40
45491;DHT22;31237;45.586;13.782;2022-10-24T03:42:26;18.10;99.40
45491;DHT22;31237;45.586;13.782;2022-10-24T03:44:51;18.10;99.50
45491;DHT22;31237;45.586;13.782;2022-10-24T03:47:17;18.10;99.50
45491;DHT22;31237;45.586;13.782;2022-10-24T03:49:44;18.10;99.50
45491;DHT22;31237;45.586;13.782;2022-10-24T03:52:10;18.10;99.50
45491;DHT22;31237;45.586;13.782;2022-10-24T03:54:36;18.10;99.50
45491;DHT22;31237;45.586;13.782;2022-10-24T03:57:03;18.10;99.50
45491;DHT22;31237;45.586;13.782;2022-10-24T03:59:29;18.10;99.50
45491;DHT22;31237;45.586;13.782;2022-10-24T04:01:55;18.10;99.50
45491;DHT22;31237;45.586;13.782;2022-10-24T04:04:21;18.10;99.50
45491;DHT22;31237;45.586;13.782;2022-10-24T04:06:46;18.10;99.50
45491;DHT22;31237;45.586;13.782;2022-10-24T04:09:12;18.10;99.50
45491;DHT22;31237;45.586;13.782;2022-10-24T04:11:38;18.10;99.60
45491;DHT22;31237;45.586;13.782;2022-10-24T04:14:04;18.10;99.50
45491;DHT22;31237;45.586;13.782;2022-10-24T04:16:29;18.10;99.50
45491;DHT22;31237;45.586;13.782;2022-10-24T04:18:58;18.10;99.50
45491;DHT22;31237;45.586;13.782;2022-10-24T04:21:24;18.10;99.60
45491;DHT22;31237;45.586;13.782;2022-10-24T04:23:50;18.10;99.60
45491;DHT22;31237;45.586;13.782;2022-10-24T04:26:16;18.10;99.70
45491;DHT22;31237;45.586;13.782;2022-10-24T04:28:43;18.10;99.70
45491;DHT22;31237;45.586;13.782;2022-10-24T04:31:11;18.10;99.70
45491;DHT22;31237;45.586;13.782;2022-10-24T04:33:37;18.10;99.70
45491;DHT22;31237;45.586;13.782;2022-10-24T04:36:03;18.10;99.70
45491;DHT22;31237;45.586;13.782;2022-10-24T04:38:29;18.10;99.70
45491;DHT22;31237;45.586;13.782;2022-10-24T04:40:55;18.10;99.70
45491;DHT22;31237;45.586;13.782;2022-10-24T04:43:22;18.10;99.70
45491;DHT22;31237;45.586;13.782;2022-10-24T04:45:49;18.10;99.80
45491;DHT22;31237;45.586;13.782;2022-10-24T04:48:15;18.10;99.80
45491;DHT22;31237;45.586;13.782;2022-10-24T04:50:42;18.10;99.80
45491;DHT22;31237;45.586;13.782;2022-10-24T04:53:08;18.10;99.80
45491;DHT22;31237;45.586;13.782;2022-10-24T04:55:34;18.10;99.90
45491;DHT22;31237;45.586;13.782;2022-10-24T04:58:00;18.10;99.90
45491;DHT22;31237;45.586;13.782;2022-10-24T05:00:26;18.10;99.90
45491;DHT22;31237;45.586;13.782;2022-10-24T05:02:52;18.20;99.90
45491;DHT22;31237;45.586;13.782;2022-10-24T05:05:18;18.20;99.90
45491;DHT22;31237;45.586;13.782;2022-10-24T05:07:44;18.10;99.90
45491;DHT22;31237;45.586;13.782;2022-10-24T05:10:11;18.10;99.90
45491;DHT22;31237;45.586;13.782;2022-10-24T05:12:36;18.10;99.90
45491;DHT22;31237;45.586;13.782;2022-10-24T05:15:03;18.20;99.90
45491;DHT22;31237;45.586;13.782;2022-10-24T05:17:30;18.10;99.90
45491;DHT22;31237;45.586;13.782;2022-10-24T05:19:55;18.10;99.90
45491;DHT22;31237;45.586;13.782;2022-10-24T05:22:21;18.20;99.90
45491;DHT22;31237;45.586;13.782;2022-10-24T05:24:48;18.20;99.90
45491;DHT22;31237;45.586;13.782;2022-10-24T05:27:14;18.20;99.90
45491;DHT22;31237;45.586;13.782;2022-10-24T05:29:40;18.20;99.90
45491;DHT22;31237;45.586;13.782;2022-10-24T05:32:06;18.20;99.90
45491;DHT22;31237;45.586;13.782;2022-10-24T05:34:31;18.20;99.90
45491;DHT22;31237;45.586;13.782;2022-10-24T05:36:57;18.20;99.90
45491;DHT22;31237;45.586;13.782;2022-10-24T05:39:23;18.10;99.90
45491;DHT22;31237;45.586;13.782;2022-10-24T05:41:49;18.20;99.90
45491;DHT22;31237;45.586;13.782;2022-10-24T05:44:15;18.20;99.90
45491;DHT22;31237;45.586;13.782;2022-10-24T05:46:40;18.20;99.90
45491;DHT22;31237;45.586;13.782;2022-10-24T05:49:06;18.20;99.90
45491;DHT22;31237;45.586;13.782;2022-10-24T05:51:32;18.20;99.90
45491;DHT22;31237;45.586;13.782;2022-10-24T05:53:58;18.20;99.90
45491;DHT22;31237;45.586;13.782;2022-10-24T05:56:24;18.10;99.90
45491;DHT22;31237;45.586;13.782;2022-10-24T05:58:50;18.10;99.90
45491;DHT22;31237;45.586;13.782;2022-10-24T06:01:16;18.10;99.90
45491;DHT22;31237;45.586;13.782;2022-10-24T06:03:42;18.20;99.90
45491;DHT22;31237;45.586;13.782;2022-10-24T06:06:08;18.20;99.90
45491;DHT22;31237;45.586;13.782;2022-10-24T06:08:35;18.20;99.90
45491;DHT22;31237;45.586;13.782;2022-10-24T06:11:02;18.20;99.90
45491;DHT22;31237;45.586;13.782;2022-10-24T06:13:28;18.20;99.90
45491;DHT22;31237;45.586;13.782;2022-10-24T06:15:54;18.20;99.90
45491;DHT22;31237;45.586;13.782;2022-10-24T06:18:19;18.20;99.90
45491;DHT22;31237;45.586;13.782;2022-10-24T06:20:45;18.20;99.90
45491;DHT22;31237;45.586;13.782;2022-10-24T06:23:11;18.20;99.90
45491;DHT22;31237;45.586;13.782;2022-10-24T06:25:39;18.30;99.90
45491;DHT22;31237;45.586;13.782;2022-10-24T06:28:06;18.30;99.90
45491;DHT22;31237;45.586;13.782;2022-10-24T06:30:33;18.30;99.90
45491;DHT22;31237;45.586;13.782;2022-10-24T06:32:59;18.30;99.90
45491;DHT22;31237;45.586;13.782;2022-10-24T06:35:24;18.30;99.90
45491;DHT22;31237;45.586;13.782;2022-10-24T06:37:50;18.40;99.90
45491;DHT22;31237;45.586;13.782;2022-10-24T06:40:16;18.40;99.90
45491;DHT22;31237;45.586;13.782;2022-10-24T06:42:42;18.40;99.90
45491;DHT22;31237;45.586;13.782;2022-10-24T06:45:09;18.40;99.90
45491;DHT22;31237;45.586;13.782;2022-10-24T06:47:35;18.40;99.90
45491;DHT22;31237;45.586;13.782;2022-10-24T06:50:00;18.40;99.90
45491;DHT22;31237;45.586;13.782;2022-10-24T06:52:27;18.40;99.90
45491;DHT22;31237;45.586;13.782;2022-10-24T06:54:52;18.40;99.90
45491;DHT22;31237;45.586;13.782;2022-10-24T06:57:18;18.40;99.90
45491;DHT22;31237;45.586;13.782;2022-10-24T06:59:44;18.50;99.90
45491;DHT22;31237;45.586;13.782;2022-10-24T07:02:14;18.50;99.90
45491;DHT22;31237;45.586;13.782;2022-10-24T07:04:40;18.50;99.90
45491;DHT22;31237;45.586;13.782;2022-10-24T07:07:05;18.50;99.90
45491;DHT22;31237;45.586;13.782;2022-10-24T07:09:31;18.60;99.90
45491;DHT22;31237;45.586;13.782;2022-10-24T07:11:57;18.60;99.90
45491;DHT22;31237;45.586;13.782;2022-10-24T07:14:24;18.60;99.90
45491;DHT22;31237;45.586;13.782;2022-10-24T07:16:50;18.60;99.90
45491;DHT22;31237;45.586;13.782;2022-10-24T07:19:16;18.70;99.90
45491;DHT22;31237;45.586;13.782;2022-10-24T07:21:42;18.70;99.90
45491;DHT22;31237;45.586;13.782;2022-10-24T07:24:11;18.80;99.90
45491;DHT22;31237;45.586;13.782;2022-10-24T07:26:37;18.80;99.90
45491;DHT22;31237;45.586;13.782;2022-10-24T07:29:03;18.80;99.90
45491;DHT22;31237;45.586;13.782;2022-10-24T07:31:31;18.90;99.90
45491;DHT22;31237;45.586;13.782;2022-10-24T07:33:58;18.90;99.80
45491;DHT22;31237;45.586;13.782;2022-10-24T07:36:25;18.90;99.70
45491;DHT22;31237;45.586;13.782;2022-10-24T07:38:53;18.90;99.60
45491;DHT22;31237;45.586;13.782;2022-10-24T07:41:19;19.00;99.60
45491;DHT22;31237;45.586;13.782;2022-10-24T07:43:45;19.00;99.60
45491;DHT22;31237;45.586;13.782;2022-10-24T07:46:14;19.00;99.50
45491;DHT22;31237;45.586;13.782;2022-10-24T07:48:40;19.00;99.50
45491;DHT22;31237;45.586;13.782;2022-10-24T07:51:09;19.10;99.50
45491;DHT22;31237;45.586;13.782;2022-10-24T07:53:35;19.10;99.50
45491;DHT22;31237;45.586;13.782;2022-10-24T07:56:01;19.10;99.50
45491;DHT22;31237;45.586;13.782;2022-10-24T07:58:27;19.10;99.50
45491;DHT22;31237;45.586;13.782;2022-10-24T08:00:53;19.20;99.50
45491;DHT22;31237;45.586;13.782;2022-10-24T08:03:19;19.30;99.60
45491;DHT22;31237;45.586;13.782;2022-10-24T08:05:46;19.30;99.50
45491;DHT22;31237;45.586;13.782;2022-10-24T08:08:12;19.40;99.40
45491;DHT22;31237;45.586;13.782;2022-10-24T08:10:37;19.50;99.20
45491;DHT22;31237;45.586;13.782;2022-10-24T08:13:03;19.50;99.20
45491;DHT22;31237;45.586;13.782;2022-10-24T08:15:29;19.60;99.10
45491;DHT22;31237;45.586;13.782;2022-10-24T08:17:55;19.70;99.00
45491;DHT22;31237;45.586;13.782;2022-10-24T08:20:21;19.70;98.90
45491;DHT22;31237;45.586;13.782;2022-10-24T08:22:48;19.80;98.90
45491;DHT22;31237;45.586;13.782;2022-10-24T08:25:14;19.80;98.90
45491;DHT22;31237;45.586;13.782;2022-10-24T08:27:41;19.90;98.80
45491;DHT22;31237;45.586;13.782;2022-10-24T08:30:07;20.00;98.80
45491;DHT22;31237;45.586;13.782;2022-10-24T08:32:34;20.10;98.50
45491;DHT22;31237;45.586;13.782;2022-10-24T08:35:00;20.10;98.40
45491;DHT22;31237;45.586;13.782;2022-10-24T08:37:26;20.20;98.20
45491;DHT22;31237;45.586;13.782;2022-10-24T08:39:51;20.20;98.00
45491;DHT22;31237;45.586;13.782;2022-10-24T08:42:22;20.30;97.90
45491;DHT22;31237;45.586;13.782;2022-10-24T08:44:49;20.30;97.80
45491;DHT22;31237;45.586;13.782;2022-10-24T08:50:22;20.40;97.50
45491;DHT22;31237;45.586;13.782;2022-10-24T08:55:38;20.40;97.10
45491;DHT22;31237;45.586;13.782;2022-10-24T08:58:05;20.40;97.00
45491;DHT22;31237;45.586;13.782;2022-10-24T09:00:37;20.40;96.90
45491;DHT22;31237;45.586;13.782;2022-10-24T09:06:01;20.40;96.80
45491;DHT22;31237;45.586;13.782;2022-10-24T09:11:13;20.50;96.70
45491;DHT22;31237;45.586;13.782;2022-10-24T09:13:40;20.50;96.60
45491;DHT22;31237;45.586;13.782;2022-10-24T09:16:10;20.50;96.60
45491;DHT22;31237;45.586;13.782;2022-10-24T09:18:40;20.50;96.50
45491;DHT22;31237;45.586;13.782;2022-10-24T09:21:12;20.60;96.60
45491;DHT22;31237;45.586;13.782;2022-10-24T09:23:38;20.70;96.40
45491;DHT22;31237;45.586;13.782;2022-10-24T09:26:07;20.70;96.40
45491;DHT22;31237;45.586;13.782;2022-10-24T09:28:38;20.70;96.20
45491;DHT22;31237;45.586;13.782;2022-10-24T09:31:25;20.80;96.10
45491;DHT22;31237;45.586;13.782;2022-10-24T09:33:52;20.80;96.10
45491;DHT22;31237;45.586;13.782;2022-10-24T09:36:19;20.90;96.00
45491;DHT22;31237;45.586;13.782;2022-10-24T09:38:47;21.00;95.90
45491;DHT22;31237;45.586;13.782;2022-10-24T09:41:18;21.10;95.70
45491;DHT22;31237;45.586;13.782;2022-10-24T09:46:37;21.10;95.30
45491;DHT22;31237;45.586;13.782;2022-10-24T09:49:18;21.20;95.30
45491;DHT22;31237;45.586;13.782;2022-10-24T09:51:50;21.20;95.30
45491;DHT22;31237;45.586;13.782;2022-10-24T09:54:29;21.20;95.20
45491;DHT22;31237;45.586;13.782;2022-10-24T09:59:31;21.30;94.80
45491;DHT22;31237;45.586;13.782;2022-10-24T10:04:35;21.50;94.50
45491;DHT22;31237;45.586;13.782;2022-10-24T10:07:08;21.60;94.20
45491;DHT22;31237;45.586;13.782;2022-10-24T10:09:36;21.70;94.00
45491;DHT22;31237;45.586;13.782;2022-10-24T10:12:25;21.80;93.70
45491;DHT22;31237;45.586;13.782;2022-10-24T10:14:51;21.90;93.50
45491;DHT22;31237;45.586;13.782;2022-10-24T10:17:22;21.90;93.50
45491;DHT22;31237;45.586;13.782;2022-10-24T10:19:49;22.00;93.40
45491;DHT22;31237;45.586;13.782;2022-10-24T10:22:26;22.10;93.20
45491;DHT22;31237;45.586;13.782;2022-10-24T10:24:53;22.20;92.80
45491;DHT22;31237;45.586;13.782;2022-10-24T10:27:39;22.20;92.60
45491;DHT22;31237;45.586;13.782;2022-10-24T10:44:36;22.60;91.50
45491;DHT22;31237;45.586;13.782;2022-10-24T10:47:11;22.70;91.30
45491;DHT22;31237;45.586;13.782;2022-10-24T10:49:41;22.70;91.10
45491;DHT22;31237;45.586;13.782;2022-10-24T11:00:33;22.90;90.60
45491;DHT22;31237;45.586;13.782;2022-10-24T11:03:56;22.80;90.40
45491;DHT22;31237;45.586;13.782;2022-10-24T11:11:52;22.90;90.10
45491;DHT22;31237;45.586;13.782;2022-10-24T11:17:16;22.90;89.60
45491;DHT22;31237;45.586;13.782;2022-10-24T11:22:24;23.00;89.60
45491;DHT22;31237;45.586;13.782;2022-10-24T11:24:56;23.00;89.50
45491;DHT22;31237;45.586;13.782;2022-10-24T11:28:35;23.00;89.40
45491;DHT22;31237;45.586;13.782;2022-10-24T11:33:14;23.00;88.70
45491;DHT22;31237;45.586;13.782;2022-10-24T11:36:05;23.00;88.40
45491;DHT22;31237;45.586;13.782;2022-10-24T11:38:34;22.90;88.40
45491;DHT22;31237;45.586;13.782;2022-10-24T11:43:54;22.90;88.50
45491;DHT22;31237;45.586;13.782;2022-10-24T11:46:32;22.90;88.30
45491;DHT22;31237;45.586;13.782;2022-10-24T11:49:19;22.80;87.90
45491;DHT22;31237;45.586;13.782;2022-10-24T11:51:50;22.80;87.80
45491;DHT22;31237;45.586;13.782;2022-10-24T11:54:29;22.70;87.90
45491;DHT22;31237;45.586;13.782;2022-10-24T11:57:02;22.60;88.20
45491;DHT22;31237;45.586;13.782;2022-10-24T11:59:29;22.50;87.70
45491;DHT22;31237;45.586;13.782;2022-10-24T12:18:44;22.00;88.00
45491;DHT22;31237;45.586;13.782;2022-10-24T12:21:19;22.00;88.00
45491;DHT22;31237;45.586;13.782;2022-10-24T12:23:59;21.90;88.00
45491;DHT22;31237;45.586;13.782;2022-10-24T12:26:33;21.80;88.20
45491;DHT22;31237;45.586;13.782;2022-10-24T12:29:00;21.70;88.40
45491;DHT22;31237;45.586;13.782;2022-10-24T12:39:36;21.50;88.70
45491;DHT22;31237;45.586;13.782;2022-10-24T12:42:03;21.40;88.90
45491;DHT22;31237;45.586;13.782;2022-10-24T12:46:58;21.40;89.00
45491;DHT22;31237;45.586;13.782;2022-10-24T12:49:29;21.40;89.30
45491;DHT22;31237;45.586;13.782;2022-10-24T12:51:57;21.30;89.20
45491;DHT22;31237;45.586;13.782;2022-10-24T12:54:43;21.30;89.50
45491;DHT22;31237;45.586;13.782;2022-10-24T12:59:45;21.30;89.50
45491;DHT22;31237;45.586;13.782;2022-10-24T13:15:54;21.70;89.30
45491;DHT22;31237;45.586;13.782;2022-10-24T13:21:28;21.70;89.00
45491;DHT22;31237;45.586;13.782;2022-10-24T13:34:44;21.70;88.90
45491;DHT22;31237;45.586;13.782;2022-10-24T13:37:35;21.70;88.80
45491;DHT22;31237;45.586;13.782;2022-10-24T13:42:47;21.70;88.70
45491;DHT22;31237;45.586;13.782;2022-10-24T13:45:58;21.70;88.90
45491;DHT22;31237;45.586;13.782;2022-10-24T13:48:31;21.70;88.70
45491;DHT22;31237;45.586;13.782;2022-10-24T13:51:20;21.70;88.60
45491;DHT22;31237;45.586;13.782;2022-10-24T13:53:56;21.70;88.80
45491;DHT22;31237;45.586;13.782;2022-10-24T13:56:24;21.70;88.70
45491;DHT22;31237;45.586;13.782;2022-10-24T13:58:50;21.60;88.60
45491;DHT22;31237;45.586;13.782;2022-10-24T14:01:21;21.60;88.70
45491;DHT22;31237;45.586;13.782;2022-10-24T14:03:50;21.60;88.30
45491;DHT22;31237;45.586;13.782;2022-10-24T14:06:23;21.50;88.70
45491;DHT22;31237;45.586;13.782;2022-10-24T14:08:52;21.50;88.80
45491;DHT22;31237;45.586;13.782;2022-10-24T14:11:21;21.40;88.80
45491;DHT22;31237;45.586;13.782;2022-10-24T14:13:56;21.40;88.90
45491;DHT22;31237;45.586;13.782;2022-10-24T14:18:50;21.40;88.90
45491;DHT22;31237;45.586;13.782;2022-10-24T14:21:18;21.20;89.00
45491;DHT22;31237;45.586;13.782;2022-10-24T14:23:58;21.20;88.80
45491;DHT22;31237;45.586;13.782;2022-10-24T14:26:27;21.10;88.90
45491;DHT22;31237;45.586;13.782;2022-10-24T14:28:57;21.10;89.10
45491;DHT22;31237;45.586;13.782;2022-10-24T14:31:27;21.00;89.20
45491;DHT22;31237;45.586;13.782;2022-10-24T14:33:56;21.00;89.30
45491;DHT22;31237;45.586;13.782;2022-10-24T14:36:33;20.90;89.50
45491;DHT22;31237;45.586;13.782;2022-10-24T14:39:03;20.90;89.70
45491;DHT22;31237;45.586;13.782;2022-10-24T14:41:33;20.80;89.70
45491;DHT22;31237;45.586;13.782;2022-10-24T14:44:00;20.80;90.00
45491;DHT22;31237;45.586;13.782;2022-10-24T14:46:39;20.80;89.80
45491;DHT22;31237;45.586;13.782;2022-10-24T14:51:53;20.80;90.00
45491;DHT22;31237;45.586;13.782;2022-10-24T14:54:29;20.80;89.90
45491;DHT22;31237;45.586;13.782;2022-10-24T14:56:56;20.80;89.90
45491;DHT22;31237;45.586;13.782;2022-10-24T14:59:50;20.70;89.90
45491;DHT22;31237;45.586;13.782;2022-10-24T15:02:21;20.70;89.90
45491;DHT22;31237;45.586;13.782;2022-10-24T15:04:47;20.60;90.00
45491;DHT22;31237;45.586;13.782;2022-10-24T15:07:29;20.50;90.00
45491;DHT22;31237;45.586;13.782;2022-10-24T15:10:23;20.50;90.10
45491;DHT22;31237;45.586;13.782;2022-10-24T15:15:29;20.40;90.10
45491;DHT22;31237;45.586;13.782;2022-10-24T15:18:12;20.30;90.20
45491;DHT22;31237;45.586;13.782;2022-10-24T15:20:40;20.30;90.30
45491;DHT22;31237;45.586;13.782;2022-10-24T15:23:28;20.20;90.40
45491;DHT22;31237;45.586;13.782;2022-10-24T15:25:59;20.20;90.40
45491;DHT22;31237;45.586;13.782;2022-10-24T15:29:05;20.10;90.50
45491;DHT22;31237;45.586;13.782;2022-10-24T15:31:36;20.10;90.50
45491;DHT22;31237;45.586;13.782;2022-10-24T15:34:03;20.00;90.60
45491;DHT22;31237;45.586;13.782;2022-10-24T15:36:32;19.90;90.60
45491;DHT22;31237;45.586;13.782;2022-10-24T15:39:05;19.90;90.70
45491;DHT22;31237;45.586;13.782;2022-10-24T15:41:31;19.80;90.70
45491;DHT22;31237;45.586;13.782;2022-10-24T15:43:57;19.80;90.80
45491;DHT22;31237;45.586;13.782;2022-10-24T15:46:23;19.70;90.90
45491;DHT22;31237;45.586;13.782;2022-10-24T15:48:51;19.70;90.90
45491;DHT22;31237;45.586;13.782;2022-10-24T15:51:20;19.60;91.00
45491;DHT22;31237;45.586;13.782;2022-10-24T15:53:46;19.50;91.00
45491;DHT22;31237;45.586;13.782;2022-10-24T15:56:13;19.50;91.00
45491;DHT22;31237;45.586;13.782;2022-10-24T15:58:40;19.40;91.10
45491;DHT22;31237;45.586;13.782;2022-10-24T16:01:07;19.40;91.10
45491;DHT22;31237;45.586;13.782;2022-10-24T16:03:40;19.30;91.20
45491;DHT22;31237;45.586;13.782;2022-10-24T16:06:05;19.20;91.30
45491;DHT22;31237;45.586;13.782;2022-10-24T16:08:31;19.20;91.40
45491;DHT22;31237;45.586;13.782;2022-10-24T16:10:57;19.10;91.50
45491;DHT22;31237;45.586;13.782;2022-10-24T16:13:23;19.00;91.50
45491;DHT22;31237;45.586;13.782;2022-10-24T16:15:48;19.00;91.70
45491;DHT22;31237;45.586;13.782;2022-10-24T16:18:15;19.00;91.80
45491;DHT22;31237;45.586;13.782;2022-10-24T16:20:41;18.90;91.80
45491;DHT22;31237;45.586;13.782;2022-10-24T16:23:07;18.90;91.90
45491;DHT22;31237;45.586;13.782;2022-10-24T16:25:35;18.80;91.90
45491;DHT22;31237;45.586;13.782;2022-10-24T16:28:02;18.70;92.00
45491;DHT22;31237;45.586;13.782;2022-10-24T16:30:33;18.70;92.10
45491;DHT22;31237;45.586;13.782;2022-10-24T16:32:59;18.70;92.10
45491;DHT22;31237;45.586;13.782;2022-10-24T16:35:28;18.60;92.20
45491;DHT22;31237;45.586;13.782;2022-10-24T16:37:56;18.60;92.30
45491;DHT22;31237;45.586;13.782;2022-10-24T16:40:22;18.60;92.40
45491;DHT22;31237;45.586;13.782;2022-10-24T16:42:49;18.50;92.40
45491;DHT22;31237;45.586;13.782;2022-10-24T16:45:16;18.50;92.40
45491;DHT22;31237;45.586;13.782;2022-10-24T16:47:42;18.50;92.50
45491;DHT22;31237;45.586;13.782;2022-10-24T16:50:12;18.40;92.50
45491;DHT22;31237;45.586;13.782;2022-10-24T16:52:38;18.40;92.50
45491;DHT22;31237;45.586;13.782;2022-10-24T16:55:04;18.40;92.60
45491;DHT22;31237;45.586;13.782;2022-10-24T16:57:30;18.40;92.70
45491;DHT22;31237;45.586;13.782;2022-10-24T16:59:56;18.30;92.70
45491;DHT22;31237;45.586;13.782;2022-10-24T17:02:21;18.30;92.70
45491;DHT22;31237;45.586;13.782;2022-10-24T17:04:47;18.30;92.80
45491;DHT22;31237;45.586;13.782;2022-10-24T17:07:13;18.20;92.80
45491;DHT22;31237;45.586;13.782;2022-10-24T17:09:39;18.20;92.80
45491;DHT22;31237;45.586;13.782;2022-10-24T17:12:06;18.20;92.90
45491;DHT22;31237;45.586;13.782;2022-10-24T17:14:34;18.20;92.90
45491;DHT22;31237;45.586;13.782;2022-10-24T17:17:01;18.10;92.90
45491;DHT22;31237;45.586;13.782;2022-10-24T17:19:27;18.10;92.90
45491;DHT22;31237;45.586;13.782;2022-10-24T17:21:53;18.10;93.00
45491;DHT22;31237;45.586;13.782;2022-10-24T17:24:22;18.00;93.00
45491;DHT22;31237;45.586;13.782;2022-10-24T17:26:50;18.00;93.20
45491;DHT22;31237;45.586;13.782;2022-10-24T17:29:26;18.00;93.20
45491;DHT22;31237;45.586;13.782;2022-10-24T17:31:52;18.00;93.20
45491;DHT22;31237;45.586;13.782;2022-10-24T17:34:19;18.00;93.20
45491;DHT22;31237;45.586;13.782;2022-10-24T17:36:50;17.90;93.20
45491;DHT22;31237;45.586;13.782;2022-10-24T17:39:20;17.90;93.30
45491;DHT22;31237;45.586;13.782;2022-10-24T17:41:47;17.90;93.30
45491;DHT22;31237;45.586;13.782;2022-10-24T17:44:16;17.90;93.40
45491;DHT22;31237;45.586;13.782;2022-10-24T17:46:43;17.90;93.50
45491;DHT22;31237;45.586;13.782;2022-10-24T17:49:09;17.80;93.50
45491;DHT22;31237;45.586;13.782;2022-10-24T17:51:36;17.80;93.60